Des Moines, Iowa
Current Conditions -  °F | °C
As of 9:54 PM on Sunday 25 Jan 2015 (Local Time) from KDSM Reporting Station
Overcast Overcast  
Wind Chill: 27°   Ceiling: 2000
Heat Index: 33°   Visibility: 10mi
Dew Point: 24°   Wind: 7mph
Humidity: 70%   Direction: 360°N
Pressure: 30.08"   Gusts: NA
Location:  41.59°N, 93.61°W
Report Text: KDSM 260354Z 36006KT 10SM OVC020 01/M04 A3008 RMK AO2 SLP193 T00061044
Loading
Personal Weather Stations






























Interactive Weather Map New forecast layout! Learn more

10-Day Weather Forecast

Advertisements
Track Severe Weather on mobile